sensor_id;sensor_type;location;lat;lon;timestamp;pressure;altitude;pressure_sealevel;temperature;humidity
72038;BME280;59900;50.788;12.904;2023-06-14T00:01:08;97439.34;;;14.58;61.90
72038;BME280;59900;50.788;12.904;2023-06-14T00:03:34;97440.81;;;14.54;62.13
72038;BME280;59900;50.788;12.904;2023-06-14T00:05:59;97437.34;;;14.53;62.37
72038;BME280;59900;50.788;12.904;2023-06-14T00:08:25;97438.16;;;14.54;62.31
72038;BME280;59900;50.788;12.904;2023-06-14T00:10:50;97431.72;;;14.50;61.96
72038;BME280;59900;50.788;12.904;2023-06-14T00:13:16;97434.81;;;14.47;62.17
72038;BME280;59900;50.788;12.904;2023-06-14T00:15:41;97437.91;;;14.44;62.13
72038;BME280;59900;50.788;12.904;2023-06-14T00:18:07;97437.09;;;14.43;62.40
72038;BME280;59900;50.788;12.904;2023-06-14T00:20:33;97446.59;;;14.44;62.55
72038;BME280;59900;50.788;12.904;2023-06-14T00:23:01;97437.91;;;14.44;62.70
72038;BME280;59900;50.788;12.904;2023-06-14T00:25:27;97438.34;;;14.41;62.59
72038;BME280;59900;50.788;12.904;2023-06-14T00:27:53;97433.69;;;14.36;62.82
72038;BME280;59900;50.788;12.904;2023-06-14T00:30:18;97436.34;;;14.36;62.95
72038;BME280;59900;50.788;12.904;2023-06-14T00:32:44;97439.47;;;14.27;62.92
72038;BME280;59900;50.788;12.904;2023-06-14T00:35:10;97430.47;;;14.16;63.63
72038;BME280;59900;50.788;12.904;2023-06-14T00:37:36;97440.94;;;14.04;63.85
72038;BME280;59900;50.788;12.904;2023-06-14T00:40:02;97438.81;;;13.95;64.31
72038;BME280;59900;50.788;12.904;2023-06-14T00:42:28;97429.56;;;13.86;64.91
72038;BME280;59900;50.788;12.904;2023-06-14T00:44:54;97437.72;;;13.84;65.20
72038;BME280;59900;50.788;12.904;2023-06-14T00:47:19;97436.09;;;13.83;65.22
72038;BME280;59900;50.788;12.904;2023-06-14T00:49:46;97440.22;;;13.79;65.58
72038;BME280;59900;50.788;12.904;2023-06-14T00:52:15;97439.03;;;13.75;65.64
72038;BME280;59900;50.788;12.904;2023-06-14T00:54:41;97435.00;;;13.73;66.05
72038;BME280;59900;50.788;12.904;2023-06-14T00:57:07;97439.84;;;13.76;65.93
72038;BME280;59900;50.788;12.904;2023-06-14T00:59:33;97439.69;;;13.71;65.96
72038;BME280;59900;50.788;12.904;2023-06-14T01:01:59;97442.53;;;13.69;66.32
72038;BME280;59900;50.788;12.904;2023-06-14T01:04:24;97435.72;;;13.62;66.42
72038;BME280;59900;50.788;12.904;2023-06-14T01:06:59;97426.75;;;13.63;66.67
72038;BME280;59900;50.788;12.904;2023-06-14T01:09:37;97432.03;;;13.63;66.42
72038;BME280;59900;50.788;12.904;2023-06-14T01:12:31;97433.66;;;13.64;66.58
72038;BME280;59900;50.788;12.904;2023-06-14T01:15:01;97439.94;;;13.63;66.32
72038;BME280;59900;50.788;12.904;2023-06-14T01:17:28;97436.28;;;13.64;66.56
72038;BME280;59900;50.788;12.904;2023-06-14T01:19:57;97438.69;;;13.65;66.30
72038;BME280;59900;50.788;12.904;2023-06-14T01:22:25;97439.13;;;13.62;66.57
72038;BME280;59900;50.788;12.904;2023-06-14T01:24:51;97432.25;;;13.61;66.66
72038;BME280;59900;50.788;12.904;2023-06-14T01:27:22;97433.28;;;13.60;66.58
72038;BME280;59900;50.788;12.904;2023-06-14T01:29:48;97432.53;;;13.53;66.78
72038;BME280;59900;50.788;12.904;2023-06-14T01:32:14;97432.97;;;13.50;66.93
72038;BME280;59900;50.788;12.904;2023-06-14T01:34:40;97430.75;;;13.47;67.16
72038;BME280;59900;50.788;12.904;2023-06-14T01:37:06;97428.75;;;13.42;67.11
72038;BME280;59900;50.788;12.904;2023-06-14T01:39:33;97422.66;;;13.42;67.37
72038;BME280;59900;50.788;12.904;2023-06-14T01:41:59;97426.53;;;13.39;67.52
72038;BME280;59900;50.788;12.904;2023-06-14T01:44:26;97423.53;;;13.36;67.45
72038;BME280;59900;50.788;12.904;2023-06-14T01:46:52;97422.75;;;13.35;67.53
72038;BME280;59900;50.788;12.904;2023-06-14T01:49:17;97422.63;;;13.24;67.79
72038;BME280;59900;50.788;12.904;2023-06-14T01:51:43;97421.81;;;13.23;68.16
72038;BME280;59900;50.788;12.904;2023-06-14T01:54:08;97422.03;;;13.22;68.01
72038;BME280;59900;50.788;12.904;2023-06-14T01:56:33;97414.91;;;13.22;68.28
72038;BME280;59900;50.788;12.904;2023-06-14T01:58:59;97426.72;;;13.20;68.50
72038;BME280;59900;50.788;12.904;2023-06-14T02:01:24;97431.03;;;13.14;68.18
72038;BME280;59900;50.788;12.904;2023-06-14T02:03:49;97431.03;;;13.14;68.53
72038;BME280;59900;50.788;12.904;2023-06-14T02:06:16;97434.66;;;13.13;68.42
72038;BME280;59900;50.788;12.904;2023-06-14T02:08:42;97432.69;;;13.09;68.72
72038;BME280;59900;50.788;12.904;2023-06-14T02:11:07;97428.81;;;13.11;68.52
72038;BME280;59900;50.788;12.904;2023-06-14T02:13:33;97433.09;;;13.06;68.74
72038;BME280;59900;50.788;12.904;2023-06-14T02:15:59;97434.53;;;13.02;68.79
72038;BME280;59900;50.788;12.904;2023-06-14T02:18:24;97425.22;;;12.99;68.71
72038;BME280;59900;50.788;12.904;2023-06-14T02:20:50;97433.53;;;12.96;68.99
72038;BME280;59900;50.788;12.904;2023-06-14T02:23:15;97436.19;;;12.96;69.29
72038;BME280;59900;50.788;12.904;2023-06-14T02:25:40;97434.41;;;12.90;69.39
72038;BME280;59900;50.788;12.904;2023-06-14T02:28:06;97429.78;;;12.85;69.52
72038;BME280;59900;50.788;12.904;2023-06-14T02:30:31;97442.34;;;12.83;69.42
72038;BME280;59900;50.788;12.904;2023-06-14T02:32:57;97430.81;;;12.78;69.94
72038;BME280;59900;50.788;12.904;2023-06-14T02:35:22;97437.72;;;12.79;69.97
72038;BME280;59900;50.788;12.904;2023-06-14T02:37:51;97437.56;;;12.74;70.01
72038;BME280;59900;50.788;12.904;2023-06-14T02:40:17;97440.63;;;12.71;70.04
72038;BME280;59900;50.788;12.904;2023-06-14T02:42:42;97438.97;;;12.70;70.28
72038;BME280;59900;50.788;12.904;2023-06-14T02:45:08;97434.94;;;12.67;70.34
72038;BME280;59900;50.788;12.904;2023-06-14T02:47:34;97435.97;;;12.66;70.05
72038;BME280;59900;50.788;12.904;2023-06-14T02:49:59;97436.78;;;12.67;70.36
72038;BME280;59900;50.788;12.904;2023-06-14T02:52:24;97439.41;;;12.67;70.21
72038;BME280;59900;50.788;12.904;2023-06-14T02:54:50;97442.66;;;12.62;70.35
72038;BME280;59900;50.788;12.904;2023-06-14T02:57:15;97442.09;;;12.54;70.75
72038;BME280;59900;50.788;12.904;2023-06-14T02:59:41;97440.09;;;12.49;70.84
72038;BME280;59900;50.788;12.904;2023-06-14T03:02:06;97447.78;;;12.51;71.03
72038;BME280;59900;50.788;12.904;2023-06-14T03:04:31;97449.63;;;12.50;70.99
72038;BME280;59900;50.788;12.904;2023-06-14T03:07:02;97449.22;;;12.53;70.85
72038;BME280;59900;50.788;12.904;2023-06-14T03:09:34;97447.59;;;12.52;71.18
72038;BME280;59900;50.788;12.904;2023-06-14T03:11:59;97457.31;;;12.52;70.99
72038;BME280;59900;50.788;12.904;2023-06-14T03:14:24;97462.41;;;12.53;71.05
72038;BME280;59900;50.788;12.904;2023-06-14T03:16:50;97465.81;;;12.54;71.16
72038;BME280;59900;50.788;12.904;2023-06-14T03:19:15;97459.53;;;12.55;71.17
72038;BME280;59900;50.788;12.904;2023-06-14T03:21:40;97463.19;;;12.54;71.13
72038;BME280;59900;50.788;12.904;2023-06-14T03:24:09;97460.97;;;12.51;71.28
72038;BME280;59900;50.788;12.904;2023-06-14T03:26:34;97460.53;;;12.54;71.17
72038;BME280;59900;50.788;12.904;2023-06-14T03:29:02;97466.63;;;12.54;71.35
72038;BME280;59900;50.788;12.904;2023-06-14T03:31:29;97470.50;;;12.52;71.51
72038;BME280;59900;50.788;12.904;2023-06-14T03:33:57;97471.50;;;12.51;71.52
72038;BME280;59900;50.788;12.904;2023-06-14T03:36:23;97468.28;;;12.49;71.50
72038;BME280;59900;50.788;12.904;2023-06-14T03:38:48;97475.19;;;12.50;71.16
72038;BME280;59900;50.788;12.904;2023-06-14T03:41:13;97480.66;;;12.48;71.48
72038;BME280;59900;50.788;12.904;2023-06-14T03:43:38;97478.81;;;12.49;71.41
72038;BME280;59900;50.788;12.904;2023-06-14T03:46:04;97478.81;;;12.49;71.38
72038;BME280;59900;50.788;12.904;2023-06-14T03:48:29;97481.47;;;12.49;71.54
72038;BME280;59900;50.788;12.904;2023-06-14T03:50:54;97493.81;;;12.48;71.79
72038;BME280;59900;50.788;12.904;2023-06-14T03:53:21;97490.19;;;12.43;71.63
72038;BME280;59900;50.788;12.904;2023-06-14T03:55:48;97490.19;;;12.43;71.92
72038;BME280;59900;50.788;12.904;2023-06-14T03:58:15;97493.06;;;12.41;72.04
72038;BME280;59900;50.788;12.904;2023-06-14T04:00:40;97490.63;;;12.40;72.00
72038;BME280;59900;50.788;12.904;2023-06-14T04:03:05;97500.31;;;12.46;72.37
72038;BME280;59900;50.788;12.904;2023-06-14T04:05:31;97495.88;;;12.46;72.21
72038;BME280;59900;50.788;12.904;2023-06-14T04:07:56;97494.63;;;12.49;72.35
72038;BME280;59900;50.788;12.904;2023-06-14T04:10:22;97497.09;;;12.50;72.40
72038;BME280;59900;50.788;12.904;2023-06-14T04:12:47;97497.88;;;12.51;72.13
72038;BME280;59900;50.788;12.904;2023-06-14T04:15:13;97502.34;;;12.50;72.27
72038;BME280;59900;50.788;12.904;2023-06-14T04:17:38;97499.06;;;12.55;72.09
72038;BME280;59900;50.788;12.904;2023-06-14T04:20:04;97500.91;;;12.54;72.27
72038;BME280;59900;50.788;12.904;2023-06-14T04:22:31;97508.22;;;12.52;72.33
72038;BME280;59900;50.788;12.904;2023-06-14T04:24:57;97504.34;;;12.55;72.13
72038;BME280;59900;50.788;12.904;2023-06-14T04:27:26;97513.66;;;12.57;72.15
72038;BME280;59900;50.788;12.904;2023-06-14T04:29:53;97509.00;;;12.59;72.17
72038;BME280;59900;50.788;12.904;2023-06-14T04:32:30;97515.28;;;12.65;72.19
72038;BME280;59900;50.788;12.904;2023-06-14T04:34:58;97512.84;;;12.63;71.74
72038;BME280;59900;50.788;12.904;2023-06-14T04:37:24;97511.81;;;12.64;71.80
72038;BME280;59900;50.788;12.904;2023-06-14T04:39:53;97515.47;;;12.63;71.62
72038;BME280;59900;50.788;12.904;2023-06-14T04:42:20;97517.28;;;12.63;71.57
72038;BME280;59900;50.788;12.904;2023-06-14T04:44:46;97517.50;;;12.68;71.75
72038;BME280;59900;50.788;12.904;2023-06-14T04:47:12;97518.28;;;12.68;71.79
72038;BME280;59900;50.788;12.904;2023-06-14T04:49:39;97514.03;;;12.67;71.87
72038;BME280;59900;50.788;12.904;2023-06-14T04:52:06;97519.72;;;12.71;71.99
72038;BME280;59900;50.788;12.904;2023-06-14T04:54:31;97520.47;;;12.78;71.94
72038;BME280;59900;50.788;12.904;2023-06-14T04:56:58;97515.78;;;12.80;71.44
72038;BME280;59900;50.788;12.904;2023-06-14T04:59:24;97520.22;;;12.86;71.45
72038;BME280;59900;50.788;12.904;2023-06-14T05:01:50;97514.13;;;12.92;71.17
72038;BME280;59900;50.788;12.904;2023-06-14T05:04:17;97515.34;;;12.89;71.22
72038;BME280;59900;50.788;12.904;2023-06-14T05:06:43;97526.13;;;12.88;71.42
72038;BME280;59900;50.788;12.904;2023-06-14T05:09:14;97525.50;;;12.86;71.85
72038;BME280;59900;50.788;12.904;2023-06-14T05:11:40;97522.88;;;12.86;71.55
72038;BME280;59900;50.788;12.904;2023-06-14T05:14:10;97529.34;;;12.90;71.52
72038;BME280;59900;50.788;12.904;2023-06-14T05:16:38;97534.84;;;12.88;71.39
72038;BME280;59900;50.788;12.904;2023-06-14T05:19:04;97543.97;;;12.86;71.97
72038;BME280;59900;50.788;12.904;2023-06-14T05:21:30;97540.13;;;12.88;72.15
72038;BME280;59900;50.788;12.904;2023-06-14T05:23:55;97537.09;;;12.85;72.19
72038;BME280;59900;50.788;12.904;2023-06-14T05:26:21;97531.41;;;12.88;72.04
72038;BME280;59900;50.788;12.904;2023-06-14T05:28:48;97535.84;;;12.94;71.78
72038;BME280;59900;50.788;12.904;2023-06-14T05:31:14;97536.19;;;12.98;71.45
72038;BME280;59900;50.788;12.904;2023-06-14T05:33:40;97539.06;;;12.96;71.56
72038;BME280;59900;50.788;12.904;2023-06-14T05:36:05;97545.31;;;13.02;71.62
72038;BME280;59900;50.788;12.904;2023-06-14T05:38:30;97548.94;;;13.07;71.85
72038;BME280;59900;50.788;12.904;2023-06-14T05:40:55;97548.94;;;13.07;71.59
72038;BME280;59900;50.788;12.904;2023-06-14T05:43:21;97554.06;;;13.09;71.82
72038;BME280;59900;50.788;12.904;2023-06-14T05:45:46;97555.66;;;13.10;71.35
72038;BME280;59900;50.788;12.904;2023-06-14T05:48:11;97557.25;;;13.17;71.15
72038;BME280;59900;50.788;12.904;2023-06-14T05:50:36;97552.94;;;13.23;71.21
72038;BME280;59900;50.788;12.904;2023-06-14T05:53:02;97566.97;;;13.23;71.00
72038;BME280;59900;50.788;12.904;2023-06-14T05:55:27;97560.03;;;13.29;71.42
72038;BME280;59900;50.788;12.904;2023-06-14T05:57:52;97557.78;;;13.32;71.14
72038;BME280;59900;50.788;12.904;2023-06-14T06:00:18;97563.91;;;13.26;71.25
72038;BME280;59900;50.788;12.904;2023-06-14T06:02:45;97559.59;;;13.32;71.71
72038;BME280;59900;50.788;12.904;2023-06-14T06:05:12;97562.22;;;13.38;71.19
72038;BME280;59900;50.788;12.904;2023-06-14T06:07:38;97557.28;;;13.42;71.36
72038;BME280;59900;50.788;12.904;2023-06-14T06:10:05;97564.59;;;13.46;71.32
72038;BME280;59900;50.788;12.904;2023-06-14T06:12:31;97556.88;;;13.45;71.59
72038;BME280;59900;50.788;12.904;2023-06-14T06:14:56;97558.88;;;13.50;71.36
72038;BME280;59900;50.788;12.904;2023-06-14T06:17:21;97555.41;;;13.49;71.58
72038;BME280;59900;50.788;12.904;2023-06-14T06:19:46;97567.78;;;13.55;71.51
72038;BME280;59900;50.788;12.904;2023-06-14T06:22:12;97560.25;;;13.59;71.71
72038;BME280;59900;50.788;12.904;2023-06-14T06:24:37;97564.06;;;13.63;71.68
72038;BME280;59900;50.788;12.904;2023-06-14T06:27:03;97563.63;;;13.66;70.86
72038;BME280;59900;50.788;12.904;2023-06-14T06:29:28;97567.22;;;13.71;70.95
72038;BME280;59900;50.788;12.904;2023-06-14T06:31:53;97570.66;;;13.78;70.77
72038;BME280;59900;50.788;12.904;2023-06-14T06:34:18;97570.22;;;13.81;70.63
72038;BME280;59900;50.788;12.904;2023-06-14T06:36:44;97573.81;;;13.87;70.52
72038;BME280;59900;50.788;12.904;2023-06-14T06:39:09;97570.38;;;13.86;70.51
72038;BME280;59900;50.788;12.904;2023-06-14T06:41:37;97572.16;;;13.92;70.38
72038;BME280;59900;50.788;12.904;2023-06-14T06:44:05;97570.91;;;13.95;70.67
72038;BME280;59900;50.788;12.904;2023-06-14T06:46:30;97571.69;;;14.02;70.35
72038;BME280;59900;50.788;12.904;2023-06-14T06:48:55;97568.97;;;14.09;70.47
72038;BME280;59900;50.788;12.904;2023-06-14T06:51:20;97569.56;;;14.11;69.87
72038;BME280;59900;50.788;12.904;2023-06-14T06:53:52;97578.88;;;14.13;70.80
72038;BME280;59900;50.788;12.904;2023-06-14T06:56:17;97583.47;;;14.24;70.16
72038;BME280;59900;50.788;12.904;2023-06-14T06:58:42;97581.16;;;14.34;69.49
72038;BME280;59900;50.788;12.904;2023-06-14T07:01:08;97568.53;;;14.36;69.39
72038;BME280;59900;50.788;12.904;2023-06-14T07:03:34;97579.19;;;14.48;68.91
72038;BME280;59900;50.788;12.904;2023-06-14T07:05:59;97578.44;;;14.59;69.13
72038;BME280;59900;50.788;12.904;2023-06-14T07:08:24;97577.94;;;14.69;68.75
72038;BME280;59900;50.788;12.904;2023-06-14T07:10:50;97577.13;;;14.68;68.12
72038;BME280;59900;50.788;12.904;2023-06-14T07:13:15;97585.44;;;14.72;68.09
72038;BME280;59900;50.788;12.904;2023-06-14T07:15:40;97593.31;;;14.78;68.41
72038;BME280;59900;50.788;12.904;2023-06-14T07:18:06;97592.44;;;14.84;68.35
72038;BME280;59900;50.788;12.904;2023-06-14T07:20:36;97590.75;;;14.90;68.60
72038;BME280;59900;50.788;12.904;2023-06-14T07:23:03;97586.38;;;14.95;67.97
72038;BME280;59900;50.788;12.904;2023-06-14T07:25:28;97597.56;;;14.97;67.65
72038;BME280;59900;50.788;12.904;2023-06-14T07:27:54;97599.09;;;15.05;67.63
72038;BME280;59900;50.788;12.904;2023-06-14T07:30:19;97597.41;;;15.10;68.06
72038;BME280;59900;50.788;12.904;2023-06-14T07:32:44;97593.06;;;15.16;67.27
72038;BME280;59900;50.788;12.904;2023-06-14T07:35:09;97602.50;;;15.24;67.42
72038;BME280;59900;50.788;12.904;2023-06-14T07:37:35;97594.38;;;15.25;67.21
72038;BME280;59900;50.788;12.904;2023-06-14T07:40:01;97599.66;;;15.25;67.27
72038;BME280;59900;50.788;12.904;2023-06-14T07:42:31;97606.41;;;15.21;66.76
72038;BME280;59900;50.788;12.904;2023-06-14T07:44:57;97607.59;;;15.25;66.49
72038;BME280;59900;50.788;12.904;2023-06-14T07:47:22;97609.44;;;15.25;67.14
72038;BME280;59900;50.788;12.904;2023-06-14T07:49:47;97607.97;;;15.29;67.33
72038;BME280;59900;50.788;12.904;2023-06-14T07:52:12;97600.41;;;15.32;67.53
72038;BME280;59900;50.788;12.904;2023-06-14T07:54:38;97608.53;;;15.31;66.73
72038;BME280;59900;50.788;12.904;2023-06-14T07:57:03;97610.31;;;15.37;66.99
72038;BME280;59900;50.788;12.904;2023-06-14T07:59:29;97601.34;;;15.38;66.76
72038;BME280;59900;50.788;12.904;2023-06-14T08:01:54;97609.16;;;15.44;67.18
72038;BME280;59900;50.788;12.904;2023-06-14T08:04:20;97604.06;;;15.49;66.68
72038;BME280;59900;50.788;12.904;2023-06-14T08:06:45;97609.47;;;15.54;66.09
72038;BME280;59900;50.788;12.904;2023-06-14T08:09:13;97606.06;;;15.65;64.90
72038;BME280;59900;50.788;12.904;2023-06-14T08:11:38;97606.16;;;15.70;64.06
72038;BME280;59900;50.788;12.904;2023-06-14T08:14:04;97608.72;;;15.77;63.91
72038;BME280;59900;50.788;12.904;2023-06-14T08:16:29;97603.78;;;15.81;64.18
72038;BME280;59900;50.788;12.904;2023-06-14T08:18:55;97608.41;;;15.85;63.90
72038;BME280;59900;50.788;12.904;2023-06-14T08:21:20;97604.06;;;15.91;64.00
72038;BME280;59900;50.788;12.904;2023-06-14T08:23:45;97599.44;;;15.98;63.59
72038;BME280;59900;50.788;12.904;2023-06-14T08:26:11;97598.88;;;16.07;63.41
72038;BME280;59900;50.788;12.904;2023-06-14T08:28:36;97602.56;;;16.18;63.94
72038;BME280;59900;50.788;12.904;2023-06-14T08:31:01;97595.69;;;16.29;63.03
72038;BME280;59900;50.788;12.904;2023-06-14T08:33:27;97604.56;;;16.34;61.24
72038;BME280;59900;50.788;12.904;2023-06-14T08:35:53;97596.50;;;16.41;59.97
72038;BME280;59900;50.788;12.904;2023-06-14T08:38:18;97594.97;;;16.45;58.92
72038;BME280;59900;50.788;12.904;2023-06-14T08:40:45;97596.94;;;16.49;59.33
72038;BME280;59900;50.788;12.904;2023-06-14T08:43:12;97603.38;;;16.53;58.18
72038;BME280;59900;50.788;12.904;2023-06-14T08:45:38;97607.22;;;16.57;57.83
72038;BME280;59900;50.788;12.904;2023-06-14T08:48:05;97604.47;;;16.64;58.38
72038;BME280;59900;50.788;12.904;2023-06-14T08:50:31;97607.78;;;16.71;57.86
72038;BME280;59900;50.788;12.904;2023-06-14T08:52:58;97612.88;;;16.72;55.70
72038;BME280;59900;50.788;12.904;2023-06-14T08:55:28;97602.25;;;16.72;54.89
72038;BME280;59900;50.788;12.904;2023-06-14T08:57:55;97608.69;;;16.76;55.65
72038;BME280;59900;50.788;12.904;2023-06-14T09:00:23;97610.41;;;16.83;55.04
72038;BME280;59900;50.788;12.904;2023-06-14T09:02:49;97614.44;;;16.85;55.06
72038;BME280;59900;50.788;12.904;2023-06-14T09:05:15;97613.66;;;16.85;54.36
72038;BME280;59900;50.788;12.904;2023-06-14T09:07:43;97616.78;;;16.82;54.09
72038;BME280;59900;50.788;12.904;2023-06-14T09:10:13;97609.75;;;16.87;54.26
72038;BME280;59900;50.788;12.904;2023-06-14T09:12:39;97622.41;;;16.97;54.54
72038;BME280;59900;50.788;12.904;2023-06-14T09:15:05;97624.13;;;17.03;53.66
72038;BME280;59900;50.788;12.904;2023-06-14T09:17:40;97624.81;;;17.10;53.10
72038;BME280;59900;50.788;12.904;2023-06-14T09:20:07;97627.00;;;17.13;52.27
72038;BME280;59900;50.788;12.904;2023-06-14T09:22:36;97629.19;;;17.16;52.52
72038;BME280;59900;50.788;12.904;2023-06-14T09:25:02;97626.88;;;17.19;52.61
72038;BME280;59900;50.788;12.904;2023-06-14T09:27:30;97627.28;;;17.28;53.28
72038;BME280;59900;50.788;12.904;2023-06-14T09:29:56;97627.47;;;17.38;53.10
72038;BME280;59900;50.788;12.904;2023-06-14T09:32:21;97627.34;;;17.45;52.66
72038;BME280;59900;50.788;12.904;2023-06-14T09:34:47;97622.94;;;17.50;52.87
72038;BME280;59900;50.788;12.904;2023-06-14T09:37:13;97616.13;;;17.54;53.40
72038;BME280;59900;50.788;12.904;2023-06-14T09:39:50;97624.19;;;17.59;51.85
72038;BME280;59900;50.788;12.904;2023-06-14T09:42:17;97629.72;;;17.69;52.29
72038;BME280;59900;50.788;12.904;2023-06-14T09:44:45;97626.66;;;17.77;52.32
72038;BME280;59900;50.788;12.904;2023-06-14T09:47:12;97618.28;;;17.85;51.91
72038;BME280;59900;50.788;12.904;2023-06-14T09:49:39;97618.69;;;17.94;51.28
72038;BME280;59900;50.788;12.904;2023-06-14T09:52:06;97609.41;;;17.97;51.60
72038;BME280;59900;50.788;12.904;2023-06-14T09:54:34;97621.53;;;17.87;51.99
72038;BME280;59900;50.788;12.904;2023-06-14T09:57:05;97621.19;;;17.84;52.56
72038;BME280;59900;50.788;12.904;2023-06-14T09:59:32;97614.34;;;17.88;52.45
72038;BME280;59900;50.788;12.904;2023-06-14T10:01:59;97614.34;;;17.88;51.91
72038;BME280;59900;50.788;12.904;2023-06-14T10:04:30;97616.75;;;17.89;52.35
72038;BME280;59900;50.788;12.904;2023-06-14T10:06:56;97626.59;;;17.89;51.99
72038;BME280;59900;50.788;12.904;2023-06-14T10:09:22;97617.41;;;17.97;52.24
72038;BME280;59900;50.788;12.904;2023-06-14T10:11:47;97617.25;;;17.86;51.72
72038;BME280;59900;50.788;12.904;2023-06-14T10:14:13;97609.72;;;17.67;52.28
72038;BME280;59900;50.788;12.904;2023-06-14T10:16:47;97615.75;;;17.62;52.43
72038;BME280;59900;50.788;12.904;2023-06-14T10:19:25;97617.78;;;17.72;52.98
72038;BME280;59900;50.788;12.904;2023-06-14T10:21:58;97621.91;;;17.79;53.42
72038;BME280;59900;50.788;12.904;2023-06-14T10:24:30;97618.19;;;17.80;52.22
72038;BME280;59900;50.788;12.904;2023-06-14T10:26:57;97620.31;;;17.78;51.71
72038;BME280;59900;50.788;12.904;2023-06-14T10:29:23;97609.19;;;17.81;52.22
72038;BME280;59900;50.788;12.904;2023-06-14T10:31:50;97620.13;;;17.85;51.83
72038;BME280;59900;50.788;12.904;2023-06-14T10:34:25;97626.38;;;17.90;51.85
72038;BME280;59900;50.788;12.904;2023-06-14T10:37:05;97626.44;;;17.96;51.95
72038;BME280;59900;50.788;12.904;2023-06-14T10:39:31;97615.97;;;18.06;51.46
72038;BME280;59900;50.788;12.904;2023-06-14T10:41:57;97605.81;;;18.03;50.51
72038;BME280;59900;50.788;12.904;2023-06-14T10:49:16;97594.06;;;17.99;51.72
72038;BME280;59900;50.788;12.904;2023-06-14T10:51:45;97598.06;;;18.01;51.68
72038;BME280;59900;50.788;12.904;2023-06-14T10:54:20;97615.41;;;18.04;51.45
72038;BME280;59900;50.788;12.904;2023-06-14T10:56:50;97609.44;;;18.13;50.51
72038;BME280;59900;50.788;12.904;2023-06-14T10:59:17;97618.25;;;18.14;50.31
72038;BME280;59900;50.788;12.904;2023-06-14T11:05:05;97604.47;;;18.17;49.67
72038;BME280;59900;50.788;12.904;2023-06-14T11:07:58;97578.41;;;18.19;48.74
72038;BME280;59900;50.788;12.904;2023-06-14T11:10:37;97590.91;;;18.18;49.45
72038;BME280;59900;50.788;12.904;2023-06-14T11:13:03;97607.50;;;18.25;49.26
72038;BME280;59900;50.788;12.904;2023-06-14T11:15:36;97601.22;;;18.31;49.41
72038;BME280;59900;50.788;12.904;2023-06-14T11:18:02;97606.69;;;18.41;48.85
72038;BME280;59900;50.788;12.904;2023-06-14T11:20:30;97613.41;;;18.61;49.28
72038;BME280;59900;50.788;12.904;2023-06-14T11:22:56;97604.94;;;18.85;49.66
72038;BME280;59900;50.788;12.904;2023-06-14T11:25:21;97606.94;;;18.95;48.01
72038;BME280;59900;50.788;12.904;2023-06-14T11:27:49;97594.34;;;19.12;47.77
72038;BME280;59900;50.788;12.904;2023-06-14T11:30:14;97595.94;;;19.35;47.50
72038;BME280;59900;50.788;12.904;2023-06-14T11:32:40;97597.25;;;19.54;46.83
72038;BME280;59900;50.788;12.904;2023-06-14T11:35:06;97604.41;;;19.75;46.96
72038;BME280;59900;50.788;12.904;2023-06-14T11:37:32;97593.84;;;19.90;46.58
72038;BME280;59900;50.788;12.904;2023-06-14T11:40:01;97579.38;;;19.81;45.57
72038;BME280;59900;50.788;12.904;2023-06-14T11:42:29;97589.88;;;19.93;46.06
72038;BME280;59900;50.788;12.904;2023-06-14T11:44:55;97594.16;;;19.94;44.69
72038;BME280;59900;50.788;12.904;2023-06-14T11:47:21;97597.81;;;19.88;44.40
72038;BME280;59900;50.788;12.904;2023-06-14T11:49:47;97590.78;;;20.03;45.48
72038;BME280;59900;50.788;12.904;2023-06-14T11:52:13;97587.16;;;20.20;45.64
72038;BME280;59900;50.788;12.904;2023-06-14T11:54:38;97588.75;;;20.21;43.93
72038;BME280;59900;50.788;12.904;2023-06-14T11:57:08;97587.16;;;20.20;43.61
72038;BME280;59900;50.788;12.904;2023-06-14T11:59:40;97580.94;;;20.09;43.44
72038;BME280;59900;50.788;12.904;2023-06-14T12:02:06;97588.41;;;20.07;43.99
72038;BME280;59900;50.788;12.904;2023-06-14T12:04:32;97589.22;;;20.07;43.82
72038;BME280;59900;50.788;12.904;2023-06-14T12:07:08;97595.28;;;20.30;43.47
72038;BME280;59900;50.788;12.904;2023-06-14T12:09:40;97587.38;;;20.50;42.88
72038;BME280;59900;50.788;12.904;2023-06-14T12:12:05;97570.09;;;20.57;43.08
72038;BME280;59900;50.788;12.904;2023-06-14T12:14:31;97584.91;;;20.80;43.63
72038;BME280;59900;50.788;12.904;2023-06-14T12:17:06;97580.78;;;21.14;43.08
72038;BME280;59900;50.788;12.904;2023-06-14T12:19:32;97551.97;;;21.27;40.89
72038;BME280;59900;50.788;12.904;2023-06-14T12:22:01;97589.91;;;21.18;41.96
72038;BME280;59900;50.788;12.904;2023-06-14T12:24:29;97579.47;;;21.12;40.94
72038;BME280;59900;50.788;12.904;2023-06-14T12:26:57;97579.22;;;21.13;41.46
72038;BME280;59900;50.788;12.904;2023-06-14T12:29:24;97582.44;;;21.26;41.06
72038;BME280;59900;50.788;12.904;2023-06-14T12:31:50;97584.41;;;21.65;42.08
72038;BME280;59900;50.788;12.904;2023-06-14T12:34:15;97568.69;;;21.89;39.36
72038;BME280;59900;50.788;12.904;2023-06-14T12:36:40;97558.50;;;21.86;39.55
72038;BME280;59900;50.788;12.904;2023-06-14T12:39:07;97567.06;;;22.03;39.52
72038;BME280;59900;50.788;12.904;2023-06-14T12:41:33;97574.31;;;22.03;39.96
72038;BME280;59900;50.788;12.904;2023-06-14T12:43:58;97578.81;;;21.82;40.22
72038;BME280;59900;50.788;12.904;2023-06-14T12:46:24;97587.88;;;21.51;40.12
72038;BME280;59900;50.788;12.904;2023-06-14T12:48:50;97590.25;;;21.42;40.49
72038;BME280;59900;50.788;12.904;2023-06-14T12:51:16;97590.81;;;21.54;40.86
72038;BME280;59900;50.788;12.904;2023-06-14T12:53:41;97591.69;;;21.90;40.84
72038;BME280;59900;50.788;12.904;2023-06-14T12:56:06;97580.41;;;22.44;41.11